Thursday, October 23, 2014, 1:08 AM EDT

KPTB, Petersburg, Dinwiddie County Airport

Location: Petersburg, VA, United States Lat: 37.183
Local Time: 1:08 AM EDT ( 5:08 GMT) Lon: -77.517
Time Zone: US/Eastern Elev: 193 ft

Show me the last for .
Show Decoded

2014-10-23 00:35 METAR KPTB 230435Z AUTO 27005KT 10SM SCT040 09/06 A2997 RMK AO2 T00930061 =
2014-10-23 00:15 METAR KPTB 230415Z AUTO 30004KT 10SM BKN038 10/06 A2997 RMK AO2 T00990062 =
2014-10-22 23:55 METAR KPTB 230355Z AUTO 31005KT 10SM BKN038 10/06 A2998 RMK AO2 T00980064 =
2014-10-22 23:35 METAR KPTB 230335Z AUTO 29004KT 10SM SCT038 10/07 A2998 RMK AO2 T00980066 =
2014-10-22 23:15 METAR KPTB 230315Z AUTO 30005KT 10SM CLR 10/07 A2999 RMK AO2 T01010066 =
2014-10-22 22:55 METAR KPTB 230255Z AUTO 30006KT 10SM CLR 10/07 A2998 RMK AO2 T01020068 =
2014-10-22 22:35 METAR KPTB 230235Z AUTO 31006KT 10SM CLR 11/07 A2998 RMK AO2 T01050070 =
2014-10-22 22:15 METAR KPTB 230215Z AUTO 30004KT 10SM SCT065 11/07 A2998 RMK AO2 T01070070 =
2014-10-22 21:55 METAR KPTB 230155Z AUTO 32006KT 10SM SCT065 11/07 A2998 RMK AO2 T01110071 =
2014-10-22 21:35 METAR KPTB 230135Z AUTO 31008KT 10SM SCT041 11/07 A2998 RMK AO2 T01120073 =
2014-10-22 21:15 METAR KPTB 230115Z AUTO 32005KT 10SM BKN041 12/08 A2998 RMK AO2 T01170075 =
2014-10-22 20:55 METAR KPTB 230055Z AUTO 29005KT 10SM SCT041 12/07 A2997 RMK AO2 T01190073 =
2014-10-22 20:35 METAR KPTB 230035Z AUTO 31006KT 10SM BKN043 13/07 A2997 RMK AO2 T01250073 =
2014-10-22 20:15 METAR KPTB 230015Z AUTO 31007KT 10SM OVC043 13/08 A2997 RMK AO2 T01260075 =
2014-10-22 19:55 METAR KPTB 222355Z AUTO 32007KT 10SM OVC041 13/08 A2996 RMK AO2 T01300075 10155
                 20124 =
2014-10-22 19:35 METAR KPTB 222335Z AUTO 32006KT 10SM BKN037 BKN042 OVC055 13/08 A2996 RMK AO2
                 T01300077 =
2014-10-22 19:15 METAR KPTB 222315Z AUTO 32007KT 10SM OVC035 13/08 A2996 RMK AO2 T01310077 =
2014-10-22 18:55 METAR KPTB 222255Z AUTO 32007KT 10SM -RA OVC037 13/08 A2995 RMK AO2 T01310076 =
2014-10-22 18:35 METAR KPTB 222235Z AUTO 32010G14KT 10SM -RA BKN033 OVC039 13/08 A2995 RMK AO2
                 T01310076 =
2014-10-22 18:15 METAR KPTB 222215Z AUTO 32010G15KT 10SM -RA BKN027 OVC033 13/08 A2995 RMK AO2
                 T01310078 =
2014-10-22 17:55 METAR KPTB 222155Z AUTO 32013G18KT 10SM -DZ OVC027 13/08 A2994 RMK AO2 T01340078
                 =
2014-10-22 17:35 METAR KPTB 222135Z AUTO 32008G16KT 10SM -RA OVC029 14/08 A2994 RMK AO2 T01350077
                 =
2014-10-22 17:15 METAR KPTB 222115Z AUTO 32012G17KT 10SM -DZ OVC029 14/08 A2994 RMK AO2 T01360077
                 =
2014-10-22 16:55 METAR KPTB 222055Z AUTO 33014G21KT 10SM -RA BKN029 OVC036 14/08 A2994 RMK AO2
                 T01380076 =
2014-10-22 16:35 METAR KPTB 222035Z AUTO 33009KT 10SM -RA BKN029 OVC036 14/08 A2994 RMK AO2
                 T01380081 =
2014-10-22 16:15 METAR KPTB 222015Z AUTO 34010G17KT 10SM -RA OVC029 14/08 A2993 RMK AO2 T01400084
                 =
2014-10-22 15:35 METAR KPTB 221935Z AUTO 32017G24KT 10SM -RA OVC030 15/09 A2993 RMK AO2 T01530088
                 =
2014-10-22 15:15 METAR KPTB 221915Z AUTO 32014G21KT 10SM -RA BKN028 BKN038 OVC043 15/10 A2992 RMK
                 AO2 LTG DSNT E T01450096 =
2014-10-22 14:55 METAR KPTB 221855Z AUTO 31012G16KT 10SM -DZ BKN036 OVC046 14/11 A2992 RMK AO2
                 T01390110 =
2014-10-22 14:35 METAR KPTB 221835Z AUTO 30012G16KT 10SM OVC034 13/11 A2993 RMK AO2 LTG DSNT E
                 T01330112 =
2014-10-22 14:15 METAR KPTB 221815Z AUTO 31012KT 10SM BKN034 BKN041 OVC060 13/11 A2993 RMK AO2
                 T01300114 =
2014-10-22 13:55 METAR KPTB 221755Z AUTO 31008G15KT 7SM -RA SCT031 BKN041 OVC060 12/11 A2993 RMK
                 AO2 T01240110 10126 20105 =
2014-10-22 13:35 METAR KPTB 221735Z AUTO 30011G15KT 10SM -RA SCT035 BKN065 OVC090 12/11 A2993 RMK
                 AO2 T01230110 =
2014-10-22 13:15 METAR KPTB 221715Z AUTO 31010G16KT 5SM -RA SCT017 BKN065 OVC075 12/11 A2993 RMK
                 AO2 T01180105 =
2014-10-22 12:55 METAR KPTB 221655Z AUTO 31010G18KT 10SM -RA SCT013 SCT021 OVC065 12/10 A2994 RMK
                 AO2 T01180103 =
2014-10-22 12:35 METAR KPTB 221635Z AUTO 31009G16KT 4SM RA SCT009 BKN018 OVC065 12/10 A2994 RMK
                 AO2 T01160103 =
2014-10-22 12:15 METAR KPTB 221615Z AUTO 32015G21KT 7SM -RA OVC014 12/10 A2995 RMK AO2 T01200103
                 =
2014-10-22 11:55 METAR KPTB 221555Z AUTO 31013G18KT 10SM -RA OVC014 12/10 A2994 RMK AO2 T01180101
                 =
2014-10-22 11:35 METAR KPTB 221535Z AUTO 32014G19KT 10SM -RA OVC014 12/10 A2994 RMK AO2 T01200104
                 =
2014-10-22 11:15 METAR KPTB 221515Z AUTO 32011G17KT 7SM -RA BKN014 OVC018 12/10 A2993 RMK AO2
                 T01170103 =
2014-10-22 10:55 METAR KPTB 221455Z AUTO 32012G17KT 7SM -RA OVC014 12/10 A2993 RMK AO2 T01150102
                 =
2014-10-22 10:15 METAR KPTB 221415Z AUTO 31012G15KT 5SM -RA OVC012 11/10 A2993 RMK AO2 LTG DSNT E
                 T01120100 =
2014-10-22 09:55 METAR KPTB 221355Z AUTO 31012G16KT 5SM -RA BKN012 OVC017 11/10 A2993 RMK AO2
                 T01100097 =
2014-10-22 09:35 METAR KPTB 221335Z AUTO 31009G16KT 5SM -RA OVC014 11/10 A2993 RMK AO2 T01080096
                 =
2014-10-22 09:15 METAR KPTB 221315Z AUTO 29007G14KT 10SM -RA OVC012 11/10 A2993 RMK AO2 T01060095
                 =
2014-10-22 08:55 METAR KPTB 221255Z AUTO 30007KT 7SM -RA BKN014 OVC023 11/09 A2992 RMK AO2
                 T01060093 =
2014-10-22 08:35 METAR KPTB 221235Z AUTO 29007KT 5SM -RA OVC023 11/09 A2992 RMK AO2 T01050093 =
2014-10-22 08:15 METAR KPTB 221215Z AUTO 29009G14KT 10SM -RA SCT011 OVC023 11/10 A2991 RMK AO2
                 T01050095 =
2014-10-22 07:55 METAR KPTB 221155Z AUTO 29006KT 7SM -RA SCT009 BKN013 OVC021 11/10 A2991 RMK AO2
                 7//// T01050095 10125 20105 =
2014-10-22 07:15 METAR KPTB 221115Z AUTO 28005KT 10SM RA SCT013 OVC019 11/09 A2990 RMK AO2
                 T01050093 =
2014-10-22 06:55 METAR KPTB 221055Z AUTO 30008KT 7SM -RA SCT009 BKN017 OVC023 11/10 A2990 RMK AO2
                 T01060095 =
2014-10-22 06:35 METAR KPTB 221035Z AUTO 30007KT 7SM RA SCT009 OVC025 11/09 A2990 RMK AO2
                 T01060093 =
2014-10-22 06:15 METAR KPTB 221015Z AUTO 28007KT 10SM -RA SCT009 OVC025 11/09 A2989 RMK AO2
                 T01070092 =
2014-10-22 05:55 METAR KPTB 220955Z AUTO 29008KT 10SM -RA SCT009 SCT021 OVC027 11/09 A2989 RMK
                 AO2 T01070090 =
2014-10-22 05:35 METAR KPTB 220935Z AUTO 28010G14KT 10SM SCT010 BKN023 OVC030 11/09 A2989 RMK AO2
                 LTG DSNT NE T01110085 =
2014-10-22 05:15 METAR KPTB 220915Z AUTO 29008KT 10SM -DZ BKN023 BKN031 OVC046 12/08 A2988 RMK
                 AO2 T01150080 =
2014-10-22 04:55 METAR KPTB 220855Z AUTO 29009KT 10SM SCT023 SCT033 OVC046 12/08 A2988 RMK AO2
                 LTG DSNT E T01170080 =
2014-10-22 04:35 METAR KPTB 220835Z AUTO 29008KT 10SM BKN048 OVC080 12/08 A2988 RMK AO2 T01170082
                 =
2014-10-22 04:15 METAR KPTB 220815Z AUTO 30007KT 10SM SCT041 SCT050 OVC080 12/08 A2987 RMK AO2
                 T01170083 =
2014-10-22 03:55 METAR KPTB 220755Z AUTO 30008KT 10SM SCT030 BKN043 OVC050 12/09 A2987 RMK AO2
                 T01170085 =
2014-10-22 03:35 METAR KPTB 220735Z AUTO 29005KT 10SM BKN030 OVC045 12/08 A2988 RMK AO2 T01180084
                 =
2014-10-22 03:15 METAR KPTB 220715Z AUTO 29005KT 10SM OVC030 12/08 A2988 RMK AO2 T01200083 =
2014-10-22 02:55 METAR KPTB 220655Z AUTO 31004KT 10SM SCT030 BKN050 12/08 A2989 RMK AO2 LTG DSNT
                 NE T01200082 =
2014-10-22 02:35 METAR KPTB 220635Z AUTO 32005KT 10SM BKN120 12/08 A2988 RMK AO2 T01200081 =
2014-10-22 02:15 METAR KPTB 220615Z AUTO 33007KT 10SM OVC120 12/08 A2988 RMK AO2 T01230083 =
2014-10-22 01:55 METAR KPTB 220555Z AUTO 32004KT 10SM OVC120 13/09 A2988 RMK AO2 T01250085 10171
                 20125 =
2014-10-22 01:35 METAR KPTB 220535Z AUTO 32007KT 10SM OVC120 13/09 A2988 RMK AO2 T01260085 =
2014-10-22 01:15 METAR KPTB 220515Z AUTO 33004KT 10SM OVC120 13/09 A2989 RMK AO2 T01270085 =

Support USWX by starting your Amazon purchase here.